sensor_id;sensor_type;location;lat;lon;timestamp;pressure;altitude;pressure_sealevel;temperature;humidity
49583;BME280;36329;48.816;44.624;2024-02-23T00:00:28;102590;;;-3.9;74.1
49583;BME280;36329;48.816;44.624;2024-02-23T00:03:31;102586;;;-3.6;73.3
49583;BME280;36329;48.816;44.624;2024-02-23T00:06:34;102590;;;-3.7;72.4
49583;BME280;36329;48.816;44.624;2024-02-23T00:09:36;102592.01;;;-3.6;72.8
49583;BME280;36329;48.816;44.624;2024-02-23T00:12:38;102591;;;-3.9;73.7
49583;BME280;36329;48.816;44.624;2024-02-23T00:15:40;102598;;;-3.8;74.2
49583;BME280;36329;48.816;44.624;2024-02-23T00:18:43;102600;;;-3.8;73.8
49583;BME280;36329;48.816;44.624;2024-02-23T00:21:45;102599;;;-3.7;73.4
49583;BME280;36329;48.816;44.624;2024-02-23T00:24:48;102592.01;;;-3.6;73.4
49583;BME280;36329;48.816;44.624;2024-02-23T00:27:50;102601;;;-3.5;72.8
49583;BME280;36329;48.816;44.624;2024-02-23T00:30:52;102605.01;;;-3.6;73.2
49583;BME280;36329;48.816;44.624;2024-02-23T00:33:55;102601;;;-3.8;73.7
49583;BME280;36329;48.816;44.624;2024-02-23T00:36:57;102600;;;-3.7;73.1
49583;BME280;36329;48.816;44.624;2024-02-23T00:39:59;102597;;;-3.6;73.4
49583;BME280;36329;48.816;44.624;2024-02-23T00:43:01;102599;;;-3.6;73.8
49583;BME280;36329;48.816;44.624;2024-02-23T00:46:03;102604;;;-3.5;73.9
49583;BME280;36329;48.816;44.624;2024-02-23T00:49:06;102603;;;-3.5;72.8
49583;BME280;36329;48.816;44.624;2024-02-23T00:52:08;102600;;;-3.6;73.6
49583;BME280;36329;48.816;44.624;2024-02-23T00:55:11;102598;;;-3.8;74.2
49583;BME280;36329;48.816;44.624;2024-02-23T00:58:14;102609;;;-3.5;73.8
49583;BME280;36329;48.816;44.624;2024-02-23T01:01:16;102609;;;-3.4;73
49583;BME280;36329;48.816;44.624;2024-02-23T01:04:18;102609;;;-3.4;72.6
49583;BME280;36329;48.816;44.624;2024-02-23T01:07:20;102609;;;-3.6;73.9
49583;BME280;36329;48.816;44.624;2024-02-23T01:10:22;102603;;;-3.8;74.4
49583;BME280;36329;48.816;44.624;2024-02-23T01:13:24;102610;;;-4;75.4
49583;BME280;36329;48.816;44.624;2024-02-23T01:16:26;102606.01;;;-3.8;74.9
49583;BME280;36329;48.816;44.624;2024-02-23T01:19:28;102605.01;;;-3.9;75.1
49583;BME280;36329;48.816;44.624;2024-02-23T01:22:30;102602;;;-3.9;74.8
49583;BME280;36329;48.816;44.624;2024-02-23T01:25:33;102604;;;-4.1;76
49583;BME280;36329;48.816;44.624;2024-02-23T01:28:35;102606.01;;;-4;76.2
49583;BME280;36329;48.816;44.624;2024-02-23T01:31:38;102610;;;-3.6;74.6
49583;BME280;36329;48.816;44.624;2024-02-23T01:34:40;102613;;;-3.6;74.2
49583;BME280;36329;48.816;44.624;2024-02-23T01:37:42;102611;;;-3.6;73.8
49583;BME280;36329;48.816;44.624;2024-02-23T01:40:44;102616;;;-3.7;74.7
49583;BME280;36329;48.816;44.624;2024-02-23T01:43:46;102613;;;-3.7;75.3
49583;BME280;36329;48.816;44.624;2024-02-23T01:46:49;102615;;;-3.8;75
49583;BME280;36329;48.816;44.624;2024-02-23T01:49:52;102613;;;-3.8;75.3
49583;BME280;36329;48.816;44.624;2024-02-23T01:52:57;102614;;;-3.9;76
49583;BME280;36329;48.816;44.624;2024-02-23T01:55:59;102616;;;-4.2;77.5
49583;BME280;36329;48.816;44.624;2024-02-23T01:59:02;102618.01;;;-4.2;78.1
49583;BME280;36329;48.816;44.624;2024-02-23T02:02:05;102618.01;;;-4.3;78.2
49583;BME280;36329;48.816;44.624;2024-02-23T02:05:07;102617.01;;;-4.4;79.2
49583;BME280;36329;48.816;44.624;2024-02-23T02:08:10;102618.99;;;-4.5;80.2
49583;BME280;36329;48.816;44.624;2024-02-23T02:11:13;102624;;;-4.4;80.6
49583;BME280;36329;48.816;44.624;2024-02-23T02:14:15;102619.99;;;-4.4;79.8
49583;BME280;36329;48.816;44.624;2024-02-23T02:17:18;102624;;;-4.4;80.2
49583;BME280;36329;48.816;44.624;2024-02-23T02:20:23;102629;;;-4.4;79.6
49583;BME280;36329;48.816;44.624;2024-02-23T02:23:26;102635;;;-4.4;79.9
49583;BME280;36329;48.816;44.624;2024-02-23T02:26:29;102636;;;-4.4;80
49583;BME280;36329;48.816;44.624;2024-02-23T02:29:31;102641;;;-4.3;79.7
49583;BME280;36329;48.816;44.624;2024-02-23T02:32:33;102643.01;;;-4.1;78.7
49583;BME280;36329;48.816;44.624;2024-02-23T02:35:35;102649;;;-4.1;77.8
49583;BME280;36329;48.816;44.624;2024-02-23T02:38:37;102648;;;-4.2;78.8
49583;BME280;36329;48.816;44.624;2024-02-23T02:41:39;102653;;;-4;78.6
49583;BME280;36329;48.816;44.624;2024-02-23T02:44:41;102656.01;;;-4;78.4
49583;BME280;36329;48.816;44.624;2024-02-23T02:47:44;102656.01;;;-3.9;77.4
49583;BME280;36329;48.816;44.624;2024-02-23T02:50:46;102657.99;;;-3.9;77.2
49583;BME280;36329;48.816;44.624;2024-02-23T02:53:48;102664;;;-3.8;77.3
49583;BME280;36329;48.816;44.624;2024-02-23T02:56:50;102660;;;-3.8;76.3
49583;BME280;36329;48.816;44.624;2024-02-23T02:59:52;102659;;;-3.9;76.5
49583;BME280;36329;48.816;44.624;2024-02-23T03:02:54;102667.01;;;-4;77.1
49583;BME280;36329;48.816;44.624;2024-02-23T03:05:57;102666;;;-4.2;77.8
49583;BME280;36329;48.816;44.624;2024-02-23T03:08:59;102666;;;-4.3;78.3
49583;BME280;36329;48.816;44.624;2024-02-23T03:12:01;102664;;;-4.1;78.3
49583;BME280;36329;48.816;44.624;2024-02-23T03:15:03;102669.99;;;-4.1;78.1
49583;BME280;36329;48.816;44.624;2024-02-23T03:18:06;102672;;;-4;78
49583;BME280;36329;48.816;44.624;2024-02-23T03:21:09;102675;;;-4;78.3
49583;BME280;36329;48.816;44.624;2024-02-23T03:24:12;102676;;;-3.8;77.5
49583;BME280;36329;48.816;44.624;2024-02-23T03:27:14;102673;;;-4;77.9
49583;BME280;36329;48.816;44.624;2024-02-23T03:30:16;102679;;;-4;77.8
49583;BME280;36329;48.816;44.624;2024-02-23T03:33:18;102681.01;;;-3.8;77.1
49583;BME280;36329;48.816;44.624;2024-02-23T03:36:20;102676;;;-3.8;77.2
49583;BME280;36329;48.816;44.624;2024-02-23T03:39:22;102678;;;-3.9;77.1
49583;BME280;36329;48.816;44.624;2024-02-23T03:42:24;102676;;;-3.8;76.3
49583;BME280;36329;48.816;44.624;2024-02-23T03:45:26;102676;;;-3.6;75.7
49583;BME280;36329;48.816;44.624;2024-02-23T03:48:28;102678;;;-3.5;74.5
49583;BME280;36329;48.816;44.624;2024-02-23T03:51:30;102678;;;-3.7;73.9
49583;BME280;36329;48.816;44.624;2024-02-23T03:54:32;102686;;;-3.5;73.7
49583;BME280;36329;48.816;44.624;2024-02-23T03:57:34;102689;;;-3.5;72.3
49583;BME280;36329;48.816;44.624;2024-02-23T04:00:36;102697;;;-3.5;72.6
49583;BME280;36329;48.816;44.624;2024-02-23T04:03:38;102696;;;-3.7;72.4
49583;BME280;36329;48.816;44.624;2024-02-23T04:06:41;102694.99;;;-3.6;72.2
49583;BME280;36329;48.816;44.624;2024-02-23T04:09:43;102701;;;-3.4;71.4
49583;BME280;36329;48.816;44.624;2024-02-23T04:12:46;102701;;;-3.4;71.7
49583;BME280;36329;48.816;44.624;2024-02-23T04:15:48;102711;;;-3.5;71.7
49583;BME280;36329;48.816;44.624;2024-02-23T04:18:51;102716;;;-3.5;71.2
49583;BME280;36329;48.816;44.624;2024-02-23T04:21:53;102716;;;-3.3;70.2
49583;BME280;36329;48.816;44.624;2024-02-23T04:24:55;102711;;;-3.8;70.9
49583;BME280;36329;48.816;44.624;2024-02-23T04:27:57;102718.01;;;-3.8;71
49583;BME280;36329;48.816;44.624;2024-02-23T04:31:00;102718.01;;;-3.7;71.1
49583;BME280;36329;48.816;44.624;2024-02-23T04:34:02;102716;;;-4;70.9
49583;BME280;36329;48.816;44.624;2024-02-23T04:37:04;102718.99;;;-4.2;71.9
49583;BME280;36329;48.816;44.624;2024-02-23T04:40:06;102715;;;-3.9;71.8
49583;BME280;36329;48.816;44.624;2024-02-23T04:43:09;102718.01;;;-4;71.1
49583;BME280;36329;48.816;44.624;2024-02-23T04:46:11;102725;;;-4.1;70.5
49583;BME280;36329;48.816;44.624;2024-02-23T04:49:13;102723;;;-4.2;71.9
49583;BME280;36329;48.816;44.624;2024-02-23T04:52:15;102723;;;-3.9;70.7
49583;BME280;36329;48.816;44.624;2024-02-23T04:55:17;102715;;;-4.1;71
49583;BME280;36329;48.816;44.624;2024-02-23T04:58:19;102718.01;;;-4.1;71.7
49583;BME280;36329;48.816;44.624;2024-02-23T05:01:21;102724;;;-4;71.7
49583;BME280;36329;48.816;44.624;2024-02-23T05:04:23;102729;;;-3.6;70
49583;BME280;36329;48.816;44.624;2024-02-23T05:07:25;102734;;;-3.9;71
49583;BME280;36329;48.816;44.624;2024-02-23T05:10:27;102740;;;-3.8;71
49583;BME280;36329;48.816;44.624;2024-02-23T05:13:30;102746;;;-3.6;69.8
49583;BME280;36329;48.816;44.624;2024-02-23T05:16:32;102736;;;-3.8;70.6
49583;BME280;36329;48.816;44.624;2024-02-23T05:19:34;102742.01;;;-3.5;68.7
49583;BME280;36329;48.816;44.624;2024-02-23T05:22:37;102747;;;-3.5;67.9
49583;BME280;36329;48.816;44.624;2024-02-23T05:25:40;102754;;;-3.7;68.6
49583;BME280;36329;48.816;44.624;2024-02-23T05:28:43;102748;;;-3.8;69.4
49583;BME280;36329;48.816;44.624;2024-02-23T05:31:47;102756.99;;;-3.6;69.6
49583;BME280;36329;48.816;44.624;2024-02-23T05:34:49;102754;;;-3.8;69.9
49583;BME280;36329;48.816;44.624;2024-02-23T05:37:52;102756.99;;;-3.5;68.6
49583;BME280;36329;48.816;44.624;2024-02-23T05:40:54;102757.99;;;-3.9;69.6
49583;BME280;36329;48.816;44.624;2024-02-23T05:43:56;102756.99;;;-3.6;69.5
49583;BME280;36329;48.816;44.624;2024-02-23T05:46:58;102762;;;-3.6;69.7
49583;BME280;36329;48.816;44.624;2024-02-23T05:50:00;102765;;;-3.6;69.3
49583;BME280;36329;48.816;44.624;2024-02-23T05:53:03;102765;;;-3.5;69.8
49583;BME280;36329;48.816;44.624;2024-02-23T05:56:05;102766;;;-3.2;69
49583;BME280;36329;48.816;44.624;2024-02-23T05:59:07;102766;;;-3.8;70.4
49583;BME280;36329;48.816;44.624;2024-02-23T06:02:09;102768.01;;;-3.8;70.7
49583;BME280;36329;48.816;44.624;2024-02-23T06:05:12;102771;;;-4;71.5
49583;BME280;36329;48.816;44.624;2024-02-23T06:08:14;102769.99;;;-3.6;69.8
49583;BME280;36329;48.816;44.624;2024-02-23T06:11:16;102768.01;;;-3.7;71.2
49583;BME280;36329;48.816;44.624;2024-02-23T06:14:19;102780.01;;;-3.7;71
49583;BME280;36329;48.816;44.624;2024-02-23T06:17:21;102779;;;-3.9;71.3
49583;BME280;36329;48.816;44.624;2024-02-23T06:20:23;102778;;;-3.8;71.1
49583;BME280;36329;48.816;44.624;2024-02-23T06:23:25;102776;;;-3.7;71.9
49583;BME280;36329;48.816;44.624;2024-02-23T06:26:27;102779;;;-3.7;70.5
49583;BME280;36329;48.816;44.624;2024-02-23T06:29:30;102784;;;-4.3;72.7
49583;BME280;36329;48.816;44.624;2024-02-23T06:32:32;102784;;;-4;72.7
49583;BME280;36329;48.816;44.624;2024-02-23T06:35:34;102781.99;;;-3.9;72.3
49583;BME280;36329;48.816;44.624;2024-02-23T06:38:36;102784;;;-3.8;72.7
49583;BME280;36329;48.816;44.624;2024-02-23T06:41:38;102781.01;;;-4.1;73.8
49583;BME280;36329;48.816;44.624;2024-02-23T06:44:41;102782.99;;;-3.8;74.1
49583;BME280;36329;48.816;44.624;2024-02-23T06:47:44;102782.99;;;-3.8;73.1
49583;BME280;36329;48.816;44.624;2024-02-23T06:50:47;102786;;;-3.7;72.9
49583;BME280;36329;48.816;44.624;2024-02-23T06:53:49;102782.99;;;-3.9;74.4
49583;BME280;36329;48.816;44.624;2024-02-23T06:56:51;102789;;;-3.5;74.3
49583;BME280;36329;48.816;44.624;2024-02-23T06:59:54;102786;;;-3.8;72.9
49583;BME280;36329;48.816;44.624;2024-02-23T07:02:56;102786;;;-3.9;74.4
49583;BME280;36329;48.816;44.624;2024-02-23T07:05:58;102788;;;-3.8;74.6
49583;BME280;36329;48.816;44.624;2024-02-23T07:09:00;102785;;;-3.9;74.2
49583;BME280;36329;48.816;44.624;2024-02-23T07:12:03;102784;;;-3.8;73.4
49583;BME280;36329;48.816;44.624;2024-02-23T07:15:05;102792.01;;;-3.9;73.6
49583;BME280;36329;48.816;44.624;2024-02-23T07:18:08;102793.99;;;-3.8;74.2
49583;BME280;36329;48.816;44.624;2024-02-23T07:21:10;102791;;;-3.5;72.8
49583;BME280;36329;48.816;44.624;2024-02-23T07:24:13;102793.99;;;-3.6;73
49583;BME280;36329;48.816;44.624;2024-02-23T07:27:15;102797;;;-3.5;72.3
49583;BME280;36329;48.816;44.624;2024-02-23T07:30:18;102794.99;;;-3.3;72.1
49583;BME280;36329;48.816;44.624;2024-02-23T07:33:20;102806.01;;;-3.1;70.3
49583;BME280;36329;48.816;44.624;2024-02-23T07:36:23;102803;;;-3.3;70.8
49583;BME280;36329;48.816;44.624;2024-02-23T07:39:25;102804;;;-3.4;71
49583;BME280;36329;48.816;44.624;2024-02-23T07:42:28;102815;;;-3.2;70.5
49583;BME280;36329;48.816;44.624;2024-02-23T07:45:30;102817.01;;;-3.1;69.9
49583;BME280;36329;48.816;44.624;2024-02-23T07:48:32;102818.99;;;-3.2;69.7
49583;BME280;36329;48.816;44.624;2024-02-23T07:51:34;102826;;;-3.3;70.9
49583;BME280;36329;48.816;44.624;2024-02-23T07:54:36;102825;;;-3.5;70.2
49583;BME280;36329;48.816;44.624;2024-02-23T07:57:38;102830.01;;;-3.4;71.2
49583;BME280;36329;48.816;44.624;2024-02-23T08:00:41;102816;;;-3;70
49583;BME280;36329;48.816;44.624;2024-02-23T08:03:43;102832.99;;;-2.9;68.8
49583;BME280;36329;48.816;44.624;2024-02-23T08:06:45;102829;;;-2.9;68.7
49583;BME280;36329;48.816;44.624;2024-02-23T08:09:47;102831.99;;;-3.1;68.9
49583;BME280;36329;48.816;44.624;2024-02-23T08:12:49;102831.01;;;-3;69.5
49583;BME280;36329;48.816;44.624;2024-02-23T08:15:51;102834;;;-2.8;68.1
49583;BME280;36329;48.816;44.624;2024-02-23T08:18:53;102840;;;-3;68.8
49583;BME280;36329;48.816;44.624;2024-02-23T08:21:55;102834;;;-2.6;68.1
49583;BME280;36329;48.816;44.624;2024-02-23T08:24:57;102840;;;-2.3;66.7
49583;BME280;36329;48.816;44.624;2024-02-23T08:28:00;102843.99;;;-2.3;67.3
49583;BME280;36329;48.816;44.624;2024-02-23T08:31:02;102847;;;-2.6;67.1
49583;BME280;36329;48.816;44.624;2024-02-23T08:34:05;102846;;;-2.9;68.3
49583;BME280;36329;48.816;44.624;2024-02-23T08:37:07;102841;;;-2.7;68.7
49583;BME280;36329;48.816;44.624;2024-02-23T08:40:09;102838;;;-2.4;67.4
49583;BME280;36329;48.816;44.624;2024-02-23T08:43:11;102849;;;-2.3;67
49583;BME280;36329;48.816;44.624;2024-02-23T08:46:13;102855.01;;;-2.5;67.8
49583;BME280;36329;48.816;44.624;2024-02-23T08:49:15;102846;;;-2.5;68.5
49583;BME280;36329;48.816;44.624;2024-02-23T08:52:18;102844.99;;;-2.2;67.6
49583;BME280;36329;48.816;44.624;2024-02-23T08:55:20;102843.01;;;-2.6;68.3
49583;BME280;36329;48.816;44.624;2024-02-23T08:58:22;102846;;;-2.6;68.6
49583;BME280;36329;48.816;44.624;2024-02-23T09:01:24;102848;;;-2.8;68.9
49583;BME280;36329;48.816;44.624;2024-02-23T09:04:26;102843.01;;;-2.8;69.6
49583;BME280;36329;48.816;44.624;2024-02-23T09:07:28;102842.01;;;-2.2;69.2
49583;BME280;36329;48.816;44.624;2024-02-23T09:10:30;102840;;;-2.1;68.1
49583;BME280;36329;48.816;44.624;2024-02-23T09:13:33;102843.99;;;-2.3;67.9
49583;BME280;36329;48.816;44.624;2024-02-23T09:16:35;102838;;;-2.4;68.8
49583;BME280;36329;48.816;44.624;2024-02-23T09:19:37;102848;;;-1.9;67.9
49583;BME280;36329;48.816;44.624;2024-02-23T09:22:39;102830.01;;;-2.8;70.1
49583;BME280;36329;48.816;44.624;2024-02-23T09:25:41;102839;;;-2.2;70.9
49583;BME280;36329;48.816;44.624;2024-02-23T09:28:43;102837;;;-1.9;68.6
49583;BME280;36329;48.816;44.624;2024-02-23T09:31:45;102839;;;-1.6;67.3
49583;BME280;36329;48.816;44.624;2024-02-23T09:34:48;102836;;;-2.3;69.6
49583;BME280;36329;48.816;44.624;2024-02-23T09:37:50;102835;;;-2.1;69.3
49583;BME280;36329;48.816;44.624;2024-02-23T09:40:53;102830.01;;;-1.6;67.7
49583;BME280;36329;48.816;44.624;2024-02-23T09:43:58;102838;;;-1.8;67
49583;BME280;36329;48.816;44.624;2024-02-23T09:47:00;102831.01;;;-1.7;66.4
49583;BME280;36329;48.816;44.624;2024-02-23T09:50:04;102837;;;-1.5;67
49583;BME280;36329;48.816;44.624;2024-02-23T09:53:07;102832.99;;;-1.7;67.3
49583;BME280;36329;48.816;44.624;2024-02-23T09:56:10;102834;;;-2.2;67.9
49583;BME280;36329;48.816;44.624;2024-02-23T09:59:12;102843.99;;;-2;67
49583;BME280;36329;48.816;44.624;2024-02-23T10:02:17;102843.99;;;-2;67.6
49583;BME280;36329;48.816;44.624;2024-02-23T10:05:22;102838;;;-2.3;68
49583;BME280;36329;48.816;44.624;2024-02-23T10:08:25;102838;;;-1.7;67.2
49583;BME280;36329;48.816;44.624;2024-02-23T10:11:27;102843.01;;;-1.7;66.3
49583;BME280;36329;48.816;44.624;2024-02-23T10:14:31;102843.01;;;-1.6;66
49583;BME280;36329;48.816;44.624;2024-02-23T10:17:33;102842.01;;;-1.6;66.1
49583;BME280;36329;48.816;44.624;2024-02-23T10:20:35;102848;;;-1.4;64.7
49583;BME280;36329;48.816;44.624;2024-02-23T10:23:37;102850;;;-1.6;65.6
49583;BME280;36329;48.816;44.624;2024-02-23T10:26:40;102842.01;;;-1.5;64.6
49583;BME280;36329;48.816;44.624;2024-02-23T10:29:42;102843.01;;;-1.9;65.9
49583;BME280;36329;48.816;44.624;2024-02-23T10:32:45;102843.99;;;-1.9;65.8
49583;BME280;36329;48.816;44.624;2024-02-23T10:35:51;102842.01;;;-1.8;65.9
49583;BME280;36329;48.816;44.624;2024-02-23T10:38:56;102851;;;-1.5;64.9
49583;BME280;36329;48.816;44.624;2024-02-23T10:42:05;102844.99;;;-1.9;65.7
49583;BME280;36329;48.816;44.624;2024-02-23T10:45:12;102840;;;-1.4;65.4
49583;BME280;36329;48.816;44.624;2024-02-23T10:48:15;102847;;;-1.6;65.4
49583;BME280;36329;48.816;44.624;2024-02-23T10:51:18;102846;;;-1.6;65.3
49583;BME280;36329;48.816;44.624;2024-02-23T10:54:20;102848;;;-1.7;64.7
49583;BME280;36329;48.816;44.624;2024-02-23T10:57:23;102855.01;;;-1.6;65.6
49583;BME280;36329;48.816;44.624;2024-02-23T11:00:25;102860;;;-1.7;66
49583;BME280;36329;48.816;44.624;2024-02-23T11:03:28;102862;;;-1.5;65.5
49583;BME280;36329;48.816;44.624;2024-02-23T11:06:34;102863;;;-1.7;66.2
49583;BME280;36329;48.816;44.624;2024-02-23T11:09:37;102863;;;-1.4;65.8
49583;BME280;36329;48.816;44.624;2024-02-23T11:12:39;102868.99;;;-1.3;65.3
49583;BME280;36329;48.816;44.624;2024-02-23T11:15:42;102871;;;-1.2;64.6
49583;BME280;36329;48.816;44.624;2024-02-23T11:18:44;102867.01;;;-1.1;64.1
49583;BME280;36329;48.816;44.624;2024-02-23T11:21:52;102867.01;;;-1.4;64.5
49583;BME280;36329;48.816;44.624;2024-02-23T11:24:59;102863;;;-1.4;65.2
49583;BME280;36329;48.816;44.624;2024-02-23T11:28:03;102853;;;-1.3;65.4
49583;BME280;36329;48.816;44.624;2024-02-23T11:31:11;102859;;;-1;64.5
49583;BME280;36329;48.816;44.624;2024-02-23T11:34:21;102864;;;-1;64.3
49583;BME280;36329;48.816;44.624;2024-02-23T11:37:28;102863;;;-0.9;64
49583;BME280;36329;48.816;44.624;2024-02-23T11:40:31;102872;;;-0.6;62.3
49583;BME280;36329;48.816;44.624;2024-02-23T11:43:34;102868.99;;;-1.4;65.1
49583;BME280;36329;48.816;44.624;2024-02-23T11:46:37;102873;;;-1.6;66.4
49583;BME280;36329;48.816;44.624;2024-02-23T11:49:39;102867.01;;;-1.5;66.3
49583;BME280;36329;48.816;44.624;2024-02-23T11:52:41;102869.99;;;-1.1;65
49583;BME280;36329;48.816;44.624;2024-02-23T11:55:43;102881.99;;;-1.2;65.1
49583;BME280;36329;48.816;44.624;2024-02-23T11:58:46;102868.99;;;-1;65.1
49583;BME280;36329;48.816;44.624;2024-02-23T12:01:50;102866;;;-1.2;65.4
49583;BME280;36329;48.816;44.624;2024-02-23T12:04:52;102872;;;-1.1;64.9
49583;BME280;36329;48.816;44.624;2024-02-23T12:07:54;102876;;;-1.2;65.2
49583;BME280;36329;48.816;44.624;2024-02-23T12:10:57;102874;;;-1.1;66
49583;BME280;36329;48.816;44.624;2024-02-23T12:13:59;102869.99;;;-1.1;65.5
49583;BME280;36329;48.816;44.624;2024-02-23T12:17:02;102884;;;-1.1;64.8
49583;BME280;36329;48.816;44.624;2024-02-23T12:20:07;102886;;;-1;64.6
49583;BME280;36329;48.816;44.624;2024-02-23T12:23:11;102877;;;-0.8;63.4
49583;BME280;36329;48.816;44.624;2024-02-23T12:26:15;102874;;;-1;63.8
49583;BME280;36329;48.816;44.624;2024-02-23T12:29:17;102878;;;-0.9;63.7
49583;BME280;36329;48.816;44.624;2024-02-23T12:32:20;102876;;;-0.8;63.3
49583;BME280;36329;48.816;44.624;2024-02-23T12:35:23;102881.01;;;-0.5;62.4
49583;BME280;36329;48.816;44.624;2024-02-23T12:38:25;102876;;;-1;62.9
49583;BME280;36329;48.816;44.624;2024-02-23T12:41:28;102889;;;-1.2;64.2
49583;BME280;36329;48.816;44.624;2024-02-23T12:44:30;102892.01;;;-1.1;63.3
49583;BME280;36329;48.816;44.624;2024-02-23T12:47:32;102893.99;;;-1.1;63.5
49583;BME280;36329;48.816;44.624;2024-02-23T12:50:35;102898;;;-1.1;63.4
49583;BME280;36329;48.816;44.624;2024-02-23T12:53:38;102892.01;;;-1.1;64.7
49583;BME280;36329;48.816;44.624;2024-02-23T12:56:40;102890;;;-0.8;64
49583;BME280;36329;48.816;44.624;2024-02-23T12:59:42;102899;;;-0.6;63
49583;BME280;36329;48.816;44.624;2024-02-23T13:02:45;102902;;;-0.5;64.5
49583;BME280;36329;48.816;44.624;2024-02-23T13:05:48;102903;;;-0.9;66
49583;BME280;36329;48.816;44.624;2024-02-23T13:08:51;102904;;;-1;67
49583;BME280;36329;48.816;44.624;2024-02-23T13:11:53;102917.01;;;-1;68.1
49583;BME280;36329;48.816;44.624;2024-02-23T13:14:55;102916;;;-1;67.4
49583;BME280;36329;48.816;44.624;2024-02-23T13:17:57;102916;;;-1.2;67.8
49583;BME280;36329;48.816;44.624;2024-02-23T13:21:00;102919.99;;;-1.3;68
49583;BME280;36329;48.816;44.624;2024-02-23T13:24:02;102922;;;-1.3;68.4
49583;BME280;36329;48.816;44.624;2024-02-23T13:27:05;102924;;;-1.2;67.1
49583;BME280;36329;48.816;44.624;2024-02-23T13:30:08;102930.01;;;-1.5;68.1
49583;BME280;36329;48.816;44.624;2024-02-23T13:33:11;102938;;;-1.6;68.3
49583;BME280;36329;48.816;44.624;2024-02-23T13:36:13;102935;;;-1.6;67.9
49583;BME280;36329;48.816;44.624;2024-02-23T13:39:15;102939;;;-1.5;67.9
49583;BME280;36329;48.816;44.624;2024-02-23T13:42:18;102943.01;;;-1.7;68.5
49583;BME280;36329;48.816;44.624;2024-02-23T13:45:21;102943.01;;;-1.5;68.3
49583;BME280;36329;48.816;44.624;2024-02-23T13:48:23;102943.99;;;-1.5;68.2
49583;BME280;36329;48.816;44.624;2024-02-23T13:51:25;102944.99;;;-1.6;68.2
49583;BME280;36329;48.816;44.624;2024-02-23T13:54:27;102946;;;-1.4;67.7
49583;BME280;36329;48.816;44.624;2024-02-23T13:57:29;102948;;;-1.5;66.8
49583;BME280;36329;48.816;44.624;2024-02-23T14:00:32;102952;;;-1.7;67
49583;BME280;36329;48.816;44.624;2024-02-23T14:03:34;102954;;;-1.9;65.8
49583;BME280;36329;48.816;44.624;2024-02-23T14:06:36;102955.01;;;-1.9;66
49583;BME280;36329;48.816;44.624;2024-02-23T14:09:38;102960;;;-2;65.8
49583;BME280;36329;48.816;44.624;2024-02-23T14:12:40;102965;;;-2;65.3
49583;BME280;36329;48.816;44.624;2024-02-23T14:15:43;102976;;;-1.8;65
49583;BME280;36329;48.816;44.624;2024-02-23T14:18:45;102977;;;-1.9;64.8
49583;BME280;36329;48.816;44.624;2024-02-23T14:21:47;102974;;;-2;64.4
49583;BME280;36329;48.816;44.624;2024-02-23T14:24:50;102976;;;-2;64
49583;BME280;36329;48.816;44.624;2024-02-23T14:27:52;102976;;;-2.1;64.7
49583;BME280;36329;48.816;44.624;2024-02-23T14:30:54;102978;;;-2;64.1
49583;BME280;36329;48.816;44.624;2024-02-23T14:33:56;102991;;;-2;63.3
49583;BME280;36329;48.816;44.624;2024-02-23T14:36:58;102988;;;-2.3;64.2
49583;BME280;36329;48.816;44.624;2024-02-23T14:40:01;102990;;;-2.5;65.3
49583;BME280;36329;48.816;44.624;2024-02-23T14:43:04;102997;;;-2.6;65.2
49583;BME280;36329;48.816;44.624;2024-02-23T14:46:07;103002;;;-2.4;65.1
49583;BME280;36329;48.816;44.624;2024-02-23T14:49:09;103002;;;-2.4;64.2
49583;BME280;36329;48.816;44.624;2024-02-23T14:52:12;103015;;;-2.3;64
49583;BME280;36329;48.816;44.624;2024-02-23T14:55:14;103009;;;-2.4;64.2
49583;BME280;36329;48.816;44.624;2024-02-23T14:58:16;103017.01;;;-2.2;63.8
49583;BME280;36329;48.816;44.624;2024-02-23T15:01:18;103015;;;-2.5;64.7
49583;BME280;36329;48.816;44.624;2024-02-23T15:04:20;103019.99;;;-2.7;65.4
49583;BME280;36329;48.816;44.624;2024-02-23T15:07:22;103032.99;;;-2.6;65.4
49583;BME280;36329;48.816;44.624;2024-02-23T15:10:25;103034;;;-2.7;66.1
49583;BME280;36329;48.816;44.624;2024-02-23T15:13:27;103042.01;;;-2.6;65.8
49583;BME280;36329;48.816;44.624;2024-02-23T15:16:29;103040;;;-2.7;66.3
49583;BME280;36329;48.816;44.624;2024-02-23T15:19:51;103042.01;;;-2.7;66.6
49583;BME280;36329;48.816;44.624;2024-02-23T15:22:53;103046;;;-3.1;67.8
49583;BME280;36329;48.816;44.624;2024-02-23T15:25:55;103062;;;-2.8;66.4
49583;BME280;36329;48.816;44.624;2024-02-23T15:28:57;103068.01;;;-2.7;66
49583;BME280;36329;48.816;44.624;2024-02-23T15:31:59;103068.01;;;-2.7;66
49583;BME280;36329;48.816;44.624;2024-02-23T15:35:02;103067.01;;;-2.6;65.8
49583;BME280;36329;48.816;44.624;2024-02-23T15:38:06;103071;;;-2.7;65.7
49583;BME280;36329;48.816;44.624;2024-02-23T15:41:08;103072;;;-2.7;65.1
49583;BME280;36329;48.816;44.624;2024-02-23T15:44:10;103077;;;-2.9;66.6
49583;BME280;36329;48.816;44.624;2024-02-23T15:47:13;103075;;;-3;66.8
49583;BME280;36329;48.816;44.624;2024-02-23T15:50:15;103081.01;;;-2.8;66.8
49583;BME280;36329;48.816;44.624;2024-02-23T15:53:18;103084;;;-2.9;66.5
49583;BME280;36329;48.816;44.624;2024-02-23T15:56:20;103090;;;-2.9;67.5
49583;BME280;36329;48.816;44.624;2024-02-23T15:59:22;103093.01;;;-2.8;67.2
49583;BME280;36329;48.816;44.624;2024-02-23T16:02:25;103094.99;;;-2.9;67.9
49583;BME280;36329;48.816;44.624;2024-02-23T16:05:28;103100;;;-3;67.7
49583;BME280;36329;48.816;44.624;2024-02-23T16:08:40;103090;;;-2.9;67.7
49583;BME280;36329;48.816;44.624;2024-02-23T16:11:44;103092.01;;;-2.9;68.4
49583;BME280;36329;48.816;44.624;2024-02-23T16:14:47;103093.01;;;-2.8;67.8
49583;BME280;36329;48.816;44.624;2024-02-23T16:17:49;103086;;;-2.9;68.6
49583;BME280;36329;48.816;44.624;2024-02-23T16:20:51;103088;;;-2.7;67.8
49583;BME280;36329;48.816;44.624;2024-02-23T16:23:53;103097;;;-2.7;67.4
49583;BME280;36329;48.816;44.624;2024-02-23T16:26:55;103096;;;-2.5;66.9
49583;BME280;36329;48.816;44.624;2024-02-23T16:29:57;103100;;;-2.8;68.1
49583;BME280;36329;48.816;44.624;2024-02-23T16:32:59;103110;;;-2.7;68.1
49583;BME280;36329;48.816;44.624;2024-02-23T16:36:02;103106.99;;;-2.9;68.4
49583;BME280;36329;48.816;44.624;2024-02-23T16:39:04;103109;;;-2.8;68.3